Terminal Aerodrome Forecast
Issued by NWS

Home | Current Version | Previous Version | Graphics & Text | Print | Product List | Glossary Off
Versions: 1 2 3 4 5 6 7 8 9 10 11 12 13 14 15 16 17 18 19 20 21 22 23 24 25 26 27 28

327
FTUS43 KDDC 260520
TAFGCK
TAF
KGCK 260520Z 2606/2706 06006KT P6SM BKN140
     FM261100 08007KT P6SM OVC035
      TEMPO 2612/2615 3SM BR OVC015
     FM261800 17011KT P6SM BKN045=

USA.gov is the U.S. government's official web portal to all federal, state and local government web resources and services.